Terminal Aerodrome Forecast
Issued by NWS

Home | Current Version | Previous Version | Text Only | Print | Product List | Glossary On
Versions: 1 2 3 4 5 6 7 8 9 10 11 12 13 14 15 16 17 18 19 20 21 22 23 24 25 26 27 28 29 30 31 32 33
000
FTUS43 KPAH 200300 AAA
TAFOWB
TAF AMD
KOWB 200353Z 2004/2024 06005KT P6SM OVC070
     FM201200 05003KT 5SM BR OVC025
     FM201600 04004KT P6SM BKN060
     FM202100 03004KT P6SM BKN130=

USA.gov is the U.S. government's official web portal to all federal, state and local government web resources and services.